sensor_id;sensor_type;location;lat;lon;timestamp;P1;durP1;ratioP1;P2;durP2;ratioP2
31746;SDS011;18319;48.974;8.462;2023-02-20T00:01:51;3.43;;;2.57;;
31746;SDS011;18319;48.974;8.462;2023-02-20T00:04:19;5.40;;;3.40;;
31746;SDS011;18319;48.974;8.462;2023-02-20T00:06:46;3.23;;;2.90;;
31746;SDS011;18319;48.974;8.462;2023-02-20T00:09:13;8.73;;;3.33;;
31746;SDS011;18319;48.974;8.462;2023-02-20T00:11:40;3.30;;;2.60;;
31746;SDS011;18319;48.974;8.462;2023-02-20T00:14:08;6.38;;;2.80;;
31746;SDS011;18319;48.974;8.462;2023-02-20T00:16:35;3.33;;;3.03;;
31746;SDS011;18319;48.974;8.462;2023-02-20T00:19:01;4.87;;;3.40;;
31746;SDS011;18319;48.974;8.462;2023-02-20T00:21:28;3.07;;;2.30;;
31746;SDS011;18319;48.974;8.462;2023-02-20T00:23:55;4.63;;;2.67;;
31746;SDS011;18319;48.974;8.462;2023-02-20T00:26:22;5.97;;;2.90;;
31746;SDS011;18319;48.974;8.462;2023-02-20T00:28:49;6.47;;;3.03;;
31746;SDS011;18319;48.974;8.462;2023-02-20T00:31:17;5.33;;;3.97;;
31746;SDS011;18319;48.974;8.462;2023-02-20T00:33:44;6.63;;;2.67;;
31746;SDS011;18319;48.974;8.462;2023-02-20T00:36:13;8.17;;;3.20;;
31746;SDS011;18319;48.974;8.462;2023-02-20T00:38:41;5.03;;;2.83;;
31746;SDS011;18319;48.974;8.462;2023-02-20T00:41:08;5.20;;;2.50;;
31746;SDS011;18319;48.974;8.462;2023-02-20T00:43:38;4.60;;;2.90;;
31746;SDS011;18319;48.974;8.462;2023-02-20T00:46:05;2.87;;;2.53;;
31746;SDS011;18319;48.974;8.462;2023-02-20T00:48:33;4.57;;;2.73;;
31746;SDS011;18319;48.974;8.462;2023-02-20T00:50:59;5.80;;;2.70;;
31746;SDS011;18319;48.974;8.462;2023-02-20T00:53:26;5.03;;;2.80;;
31746;SDS011;18319;48.974;8.462;2023-02-20T00:55:53;4.47;;;2.40;;
31746;SDS011;18319;48.974;8.462;2023-02-20T00:58:20;7.50;;;2.97;;
31746;SDS011;18319;48.974;8.462;2023-02-20T01:00:46;8.13;;;3.23;;
31746;SDS011;18319;48.974;8.462;2023-02-20T01:03:13;3.70;;;2.70;;
31746;SDS011;18319;48.974;8.462;2023-02-20T01:05:41;7.53;;;3.30;;
31746;SDS011;18319;48.974;8.462;2023-02-20T01:08:08;5.50;;;3.43;;
31746;SDS011;18319;48.974;8.462;2023-02-20T01:10:35;7.20;;;2.77;;
31746;SDS011;18319;48.974;8.462;2023-02-20T01:13:01;5.33;;;2.73;;
31746;SDS011;18319;48.974;8.462;2023-02-20T01:15:28;5.60;;;2.70;;
31746;SDS011;18319;48.974;8.462;2023-02-20T01:17:55;6.37;;;2.93;;
31746;SDS011;18319;48.974;8.462;2023-02-20T01:20:21;6.87;;;3.13;;
31746;SDS011;18319;48.974;8.462;2023-02-20T01:22:50;2.60;;;2.40;;
31746;SDS011;18319;48.974;8.462;2023-02-20T01:25:17;9.17;;;3.10;;
31746;SDS011;18319;48.974;8.462;2023-02-20T01:27:44;2.57;;;2.37;;
31746;SDS011;18319;48.974;8.462;2023-02-20T01:30:11;5.97;;;2.83;;
31746;SDS011;18319;48.974;8.462;2023-02-20T01:32:38;7.40;;;3.77;;
31746;SDS011;18319;48.974;8.462;2023-02-20T01:35:05;3.70;;;2.57;;
31746;SDS011;18319;48.974;8.462;2023-02-20T01:37:32;6.93;;;2.83;;
31746;SDS011;18319;48.974;8.462;2023-02-20T01:40:00;7.73;;;3.70;;
31746;SDS011;18319;48.974;8.462;2023-02-20T01:42:27;4.23;;;2.83;;
31746;SDS011;18319;48.974;8.462;2023-02-20T01:47:53;4.90;;;2.80;;
31746;SDS011;18319;48.974;8.462;2023-02-20T01:50:22;5.27;;;2.60;;
31746;SDS011;18319;48.974;8.462;2023-02-20T01:52:53;4.73;;;2.50;;
31746;SDS011;18319;48.974;8.462;2023-02-20T01:55:26;5.47;;;3.30;;
31746;SDS011;18319;48.974;8.462;2023-02-20T01:57:57;6.83;;;2.77;;
31746;SDS011;18319;48.974;8.462;2023-02-20T02:00:26;4.73;;;3.00;;
31746;SDS011;18319;48.974;8.462;2023-02-20T02:02:54;3.57;;;2.53;;
31746;SDS011;18319;48.974;8.462;2023-02-20T02:05:25;2.90;;;2.60;;
31746;SDS011;18319;48.974;8.462;2023-02-20T02:07:53;5.07;;;2.77;;
31746;SDS011;18319;48.974;8.462;2023-02-20T02:10:23;3.13;;;2.83;;
31746;SDS011;18319;48.974;8.462;2023-02-20T02:12:55;3.77;;;2.60;;
31746;SDS011;18319;48.974;8.462;2023-02-20T02:15:22;3.13;;;2.77;;
31746;SDS011;18319;48.974;8.462;2023-02-20T02:17:57;3.80;;;3.20;;
31746;SDS011;18319;48.974;8.462;2023-02-20T02:23:53;7.17;;;3.20;;
31746;SDS011;18319;48.974;8.462;2023-02-20T02:26:54;8.80;;;4.23;;
31746;SDS011;18319;48.974;8.462;2023-02-20T02:29:40;6.87;;;2.60;;
31746;SDS011;18319;48.974;8.462;2023-02-20T02:32:27;5.67;;;2.83;;
31746;SDS011;18319;48.974;8.462;2023-02-20T02:35:13;7.23;;;2.80;;
31746;SDS011;18319;48.974;8.462;2023-02-20T02:37:56;4.20;;;2.77;;
31746;SDS011;18319;48.974;8.462;2023-02-20T02:40:32;6.90;;;2.83;;
31746;SDS011;18319;48.974;8.462;2023-02-20T02:43:07;4.23;;;2.50;;
31746;SDS011;18319;48.974;8.462;2023-02-20T02:45:39;5.17;;;2.50;;
31746;SDS011;18319;48.974;8.462;2023-02-20T02:48:13;7.97;;;3.40;;
31746;SDS011;18319;48.974;8.462;2023-02-20T02:50:45;4.23;;;3.20;;
31746;SDS011;18319;48.974;8.462;2023-02-20T02:53:15;6.17;;;3.10;;
31746;SDS011;18319;48.974;8.462;2023-02-20T02:55:43;4.93;;;3.00;;
31746;SDS011;18319;48.974;8.462;2023-02-20T02:58:09;5.63;;;3.40;;
31746;SDS011;18319;48.974;8.462;2023-02-20T03:00:39;3.57;;;2.50;;
31746;SDS011;18319;48.974;8.462;2023-02-20T03:03:09;4.97;;;2.73;;
31746;SDS011;18319;48.974;8.462;2023-02-20T03:05:42;3.30;;;2.73;;
31746;SDS011;18319;48.974;8.462;2023-02-20T03:08:17;5.23;;;3.13;;
31746;SDS011;18319;48.974;8.462;2023-02-20T03:10:55;4.33;;;2.60;;
31746;SDS011;18319;48.974;8.462;2023-02-20T03:13:27;10.27;;;3.20;;
31746;SDS011;18319;48.974;8.462;2023-02-20T03:16:14;4.57;;;3.03;;
31746;SDS011;18319;48.974;8.462;2023-02-20T03:18:45;3.03;;;2.70;;
31746;SDS011;18319;48.974;8.462;2023-02-20T03:21:16;3.33;;;2.60;;
31746;SDS011;18319;48.974;8.462;2023-02-20T03:23:49;3.73;;;2.43;;
31746;SDS011;18319;48.974;8.462;2023-02-20T03:26:21;4.20;;;2.67;;
31746;SDS011;18319;48.974;8.462;2023-02-20T03:28:53;3.60;;;2.30;;
31746;SDS011;18319;48.974;8.462;2023-02-20T03:31:25;5.37;;;2.53;;
31746;SDS011;18319;48.974;8.462;2023-02-20T03:33:57;3.13;;;2.83;;
31746;SDS011;18319;48.974;8.462;2023-02-20T03:36:44;7.40;;;2.40;;
31746;SDS011;18319;48.974;8.462;2023-02-20T03:39:33;8.87;;;2.83;;
31746;SDS011;18319;48.974;8.462;2023-02-20T03:42:22;4.37;;;2.60;;
31746;SDS011;18319;48.974;8.462;2023-02-20T03:45:07;8.53;;;2.70;;
31746;SDS011;18319;48.974;8.462;2023-02-20T03:47:36;4.73;;;2.53;;
31746;SDS011;18319;48.974;8.462;2023-02-20T03:50:08;4.33;;;2.87;;
31746;SDS011;18319;48.974;8.462;2023-02-20T03:52:37;4.53;;;2.83;;
31746;SDS011;18319;48.974;8.462;2023-02-20T03:55:06;4.00;;;2.63;;
31746;SDS011;18319;48.974;8.462;2023-02-20T03:57:35;4.27;;;2.37;;
31746;SDS011;18319;48.974;8.462;2023-02-20T04:00:07;4.77;;;2.87;;
31746;SDS011;18319;48.974;8.462;2023-02-20T04:02:37;3.10;;;2.70;;
31746;SDS011;18319;48.974;8.462;2023-02-20T04:05:07;3.87;;;2.90;;
31746;SDS011;18319;48.974;8.462;2023-02-20T04:07:38;4.53;;;3.00;;
31746;SDS011;18319;48.974;8.462;2023-02-20T04:10:10;2.77;;;2.50;;
31746;SDS011;18319;48.974;8.462;2023-02-20T04:12:43;6.57;;;2.60;;
31746;SDS011;18319;48.974;8.462;2023-02-20T04:15:12;3.63;;;2.93;;
31746;SDS011;18319;48.974;8.462;2023-02-20T04:17:41;2.97;;;2.57;;
31746;SDS011;18319;48.974;8.462;2023-02-20T04:20:12;3.57;;;2.90;;
31746;SDS011;18319;48.974;8.462;2023-02-20T04:22:40;3.13;;;2.27;;
31746;SDS011;18319;48.974;8.462;2023-02-20T04:25:13;3.23;;;2.90;;
31746;SDS011;18319;48.974;8.462;2023-02-20T04:27:44;3.60;;;2.80;;
31746;SDS011;18319;48.974;8.462;2023-02-20T04:30:11;3.57;;;2.47;;
31746;SDS011;18319;48.974;8.462;2023-02-20T04:32:38;3.03;;;2.70;;
31746;SDS011;18319;48.974;8.462;2023-02-20T04:35:05;3.00;;;2.70;;
31746;SDS011;18319;48.974;8.462;2023-02-20T04:37:34;4.93;;;3.07;;
31746;SDS011;18319;48.974;8.462;2023-02-20T04:40:01;5.13;;;2.90;;
31746;SDS011;18319;48.974;8.462;2023-02-20T04:42:29;4.43;;;2.90;;
31746;SDS011;18319;48.974;8.462;2023-02-20T04:44:56;10.03;;;3.20;;
31746;SDS011;18319;48.974;8.462;2023-02-20T04:47:22;4.43;;;2.90;;
31746;SDS011;18319;48.974;8.462;2023-02-20T04:49:50;4.70;;;2.80;;
31746;SDS011;18319;48.974;8.462;2023-02-20T04:52:16;4.93;;;2.63;;
31746;SDS011;18319;48.974;8.462;2023-02-20T04:54:43;3.90;;;2.60;;
31746;SDS011;18319;48.974;8.462;2023-02-20T04:57:10;5.80;;;2.80;;
31746;SDS011;18319;48.974;8.462;2023-02-20T04:59:38;4.70;;;2.90;;
31746;SDS011;18319;48.974;8.462;2023-02-20T05:02:05;3.37;;;3.03;;
31746;SDS011;18319;48.974;8.462;2023-02-20T05:04:31;3.70;;;2.80;;
31746;SDS011;18319;48.974;8.462;2023-02-20T05:06:59;7.80;;;2.97;;
31746;SDS011;18319;48.974;8.462;2023-02-20T05:09:27;4.97;;;2.90;;
31746;SDS011;18319;48.974;8.462;2023-02-20T05:11:53;5.57;;;3.33;;
31746;SDS011;18319;48.974;8.462;2023-02-20T05:14:20;5.07;;;3.40;;
31746;SDS011;18319;48.974;8.462;2023-02-20T05:16:49;5.47;;;3.37;;
31746;SDS011;18319;48.974;8.462;2023-02-20T05:19:16;5.50;;;3.17;;
31746;SDS011;18319;48.974;8.462;2023-02-20T05:21:43;6.77;;;3.40;;
31746;SDS011;18319;48.974;8.462;2023-02-20T05:24:28;7.13;;;3.23;;
31746;SDS011;18319;48.974;8.462;2023-02-20T05:26:55;5.50;;;3.73;;
31746;SDS011;18319;48.974;8.462;2023-02-20T05:29:23;5.17;;;3.20;;
31746;SDS011;18319;48.974;8.462;2023-02-20T05:31:51;6.00;;;3.50;;
31746;SDS011;18319;48.974;8.462;2023-02-20T05:34:18;5.40;;;3.00;;
31746;SDS011;18319;48.974;8.462;2023-02-20T05:36:46;4.30;;;2.97;;
31746;SDS011;18319;48.974;8.462;2023-02-20T05:39:13;3.70;;;3.03;;
31746;SDS011;18319;48.974;8.462;2023-02-20T05:41:40;8.30;;;3.63;;
31746;SDS011;18319;48.974;8.462;2023-02-20T05:44:06;9.90;;;4.00;;
31746;SDS011;18319;48.974;8.462;2023-02-20T05:46:37;4.23;;;3.67;;
31746;SDS011;18319;48.974;8.462;2023-02-20T05:49:06;3.63;;;3.20;;
31746;SDS011;18319;48.974;8.462;2023-02-20T05:51:33;4.60;;;3.50;;
31746;SDS011;18319;48.974;8.462;2023-02-20T05:54:00;5.90;;;3.27;;
31746;SDS011;18319;48.974;8.462;2023-02-20T05:56:27;4.77;;;3.87;;
31746;SDS011;18319;48.974;8.462;2023-02-20T05:58:54;6.40;;;3.50;;
31746;SDS011;18319;48.974;8.462;2023-02-20T06:01:23;5.33;;;3.63;;
31746;SDS011;18319;48.974;8.462;2023-02-20T06:03:51;4.67;;;4.13;;
31746;SDS011;18319;48.974;8.462;2023-02-20T06:06:19;8.90;;;3.50;;
31746;SDS011;18319;48.974;8.462;2023-02-20T06:08:47;4.03;;;3.47;;
31746;SDS011;18319;48.974;8.462;2023-02-20T06:11:14;6.73;;;3.53;;
31746;SDS011;18319;48.974;8.462;2023-02-20T06:13:41;5.93;;;4.17;;
31746;SDS011;18319;48.974;8.462;2023-02-20T06:16:09;5.40;;;4.20;;
31746;SDS011;18319;48.974;8.462;2023-02-20T06:18:37;7.33;;;4.13;;
31746;SDS011;18319;48.974;8.462;2023-02-20T06:21:05;6.13;;;3.57;;
31746;SDS011;18319;48.974;8.462;2023-02-20T06:23:34;4.13;;;3.13;;
31746;SDS011;18319;48.974;8.462;2023-02-20T06:26:01;7.13;;;3.80;;
31746;SDS011;18319;48.974;8.462;2023-02-20T06:28:28;4.10;;;3.53;;
31746;SDS011;18319;48.974;8.462;2023-02-20T06:30:55;5.17;;;4.37;;
31746;SDS011;18319;48.974;8.462;2023-02-20T06:33:22;4.70;;;3.23;;
31746;SDS011;18319;48.974;8.462;2023-02-20T06:35:48;5.67;;;3.77;;
31746;SDS011;18319;48.974;8.462;2023-02-20T06:38:15;4.00;;;3.70;;
31746;SDS011;18319;48.974;8.462;2023-02-20T06:40:43;7.30;;;3.53;;
31746;SDS011;18319;48.974;8.462;2023-02-20T06:43:10;6.13;;;4.50;;
31746;SDS011;18319;48.974;8.462;2023-02-20T06:45:37;8.20;;;6.00;;
31746;SDS011;18319;48.974;8.462;2023-02-20T06:48:04;56.00;;;33.03;;
31746;SDS011;18319;48.974;8.462;2023-02-20T06:50:30;46.07;;;27.73;;
31746;SDS011;18319;48.974;8.462;2023-02-20T06:52:57;19.77;;;15.00;;
31746;SDS011;18319;48.974;8.462;2023-02-20T06:55:24;8.43;;;7.13;;
31746;SDS011;18319;48.974;8.462;2023-02-20T06:57:53;8.63;;;5.37;;
31746;SDS011;18319;48.974;8.462;2023-02-20T07:00:19;7.30;;;6.53;;
31746;SDS011;18319;48.974;8.462;2023-02-20T07:02:46;13.03;;;12.03;;
31746;SDS011;18319;48.974;8.462;2023-02-20T07:05:13;8.57;;;7.67;;
31746;SDS011;18319;48.974;8.462;2023-02-20T07:07:40;7.83;;;5.83;;
31746;SDS011;18319;48.974;8.462;2023-02-20T07:10:07;5.27;;;4.67;;
31746;SDS011;18319;48.974;8.462;2023-02-20T07:12:34;5.50;;;4.90;;
31746;SDS011;18319;48.974;8.462;2023-02-20T07:15:03;4.57;;;3.67;;
31746;SDS011;18319;48.974;8.462;2023-02-20T07:17:32;5.90;;;3.73;;
31746;SDS011;18319;48.974;8.462;2023-02-20T07:19:58;4.20;;;3.40;;
31746;SDS011;18319;48.974;8.462;2023-02-20T07:22:25;7.00;;;4.13;;
31746;SDS011;18319;48.974;8.462;2023-02-20T07:24:52;5.10;;;4.33;;
31746;SDS011;18319;48.974;8.462;2023-02-20T07:27:19;6.40;;;3.33;;
31746;SDS011;18319;48.974;8.462;2023-02-20T07:29:47;4.50;;;4.07;;
31746;SDS011;18319;48.974;8.462;2023-02-20T07:32:16;5.83;;;3.20;;
31746;SDS011;18319;48.974;8.462;2023-02-20T07:34:44;3.47;;;3.17;;
31746;SDS011;18319;48.974;8.462;2023-02-20T07:37:11;5.20;;;4.23;;
31746;SDS011;18319;48.974;8.462;2023-02-20T07:39:38;4.90;;;3.93;;
31746;SDS011;18319;48.974;8.462;2023-02-20T07:42:05;7.30;;;3.90;;
31746;SDS011;18319;48.974;8.462;2023-02-20T07:44:32;3.70;;;3.40;;
31746;SDS011;18319;48.974;8.462;2023-02-20T07:47:00;6.80;;;3.73;;
31746;SDS011;18319;48.974;8.462;2023-02-20T07:49:28;7.47;;;4.53;;
31746;SDS011;18319;48.974;8.462;2023-02-20T07:51:55;5.80;;;3.73;;
31746;SDS011;18319;48.974;8.462;2023-02-20T07:54:21;4.10;;;3.70;;
31746;SDS011;18319;48.974;8.462;2023-02-20T07:56:48;6.67;;;3.97;;
31746;SDS011;18319;48.974;8.462;2023-02-20T07:59:15;5.17;;;3.27;;
31746;SDS011;18319;48.974;8.462;2023-02-20T08:01:42;5.83;;;3.43;;
31746;SDS011;18319;48.974;8.462;2023-02-20T08:04:09;11.00;;;3.63;;
31746;SDS011;18319;48.974;8.462;2023-02-20T08:06:37;6.90;;;3.87;;
31746;SDS011;18319;48.974;8.462;2023-02-20T08:09:04;4.33;;;3.40;;
31746;SDS011;18319;48.974;8.462;2023-02-20T08:11:32;12.87;;;5.07;;
31746;SDS011;18319;48.974;8.462;2023-02-20T08:14:00;5.87;;;5.27;;
31746;SDS011;18319;48.974;8.462;2023-02-20T08:16:27;7.23;;;6.43;;
31746;SDS011;18319;48.974;8.462;2023-02-20T08:18:54;6.73;;;6.03;;
31746;SDS011;18319;48.974;8.462;2023-02-20T08:21:21;5.97;;;4.53;;
31746;SDS011;18319;48.974;8.462;2023-02-20T08:23:49;6.67;;;4.10;;
31746;SDS011;18319;48.974;8.462;2023-02-20T08:26:16;6.40;;;3.37;;
31746;SDS011;18319;48.974;8.462;2023-02-20T08:28:45;4.63;;;4.17;;
31746;SDS011;18319;48.974;8.462;2023-02-20T08:31:12;6.03;;;4.63;;
31746;SDS011;18319;48.974;8.462;2023-02-20T08:33:39;4.40;;;3.70;;
31746;SDS011;18319;48.974;8.462;2023-02-20T08:36:06;5.77;;;3.87;;
31746;SDS011;18319;48.974;8.462;2023-02-20T08:38:34;7.40;;;4.23;;
31746;SDS011;18319;48.974;8.462;2023-02-20T08:41:04;4.33;;;3.10;;
31746;SDS011;18319;48.974;8.462;2023-02-20T08:43:31;4.80;;;3.43;;
31746;SDS011;18319;48.974;8.462;2023-02-20T08:45:58;7.07;;;3.87;;
31746;SDS011;18319;48.974;8.462;2023-02-20T08:48:25;5.23;;;3.03;;
31746;SDS011;18319;48.974;8.462;2023-02-20T08:50:52;6.57;;;3.10;;
31746;SDS011;18319;48.974;8.462;2023-02-20T08:53:19;5.23;;;3.20;;
31746;SDS011;18319;48.974;8.462;2023-02-20T08:55:46;3.53;;;3.00;;
31746;SDS011;18319;48.974;8.462;2023-02-20T08:58:15;4.67;;;3.00;;
31746;SDS011;18319;48.974;8.462;2023-02-20T09:00:44;6.73;;;2.87;;
31746;SDS011;18319;48.974;8.462;2023-02-20T09:03:11;6.00;;;3.17;;
31746;SDS011;18319;48.974;8.462;2023-02-20T09:05:38;2.97;;;2.57;;
31746;SDS011;18319;48.974;8.462;2023-02-20T09:08:05;5.20;;;3.20;;
31746;SDS011;18319;48.974;8.462;2023-02-20T09:10:32;4.30;;;2.63;;
31746;SDS011;18319;48.974;8.462;2023-02-20T09:12:59;6.03;;;2.83;;
31746;SDS011;18319;48.974;8.462;2023-02-20T09:15:28;6.90;;;3.15;;
31746;SDS011;18319;48.974;8.462;2023-02-20T09:17:59;3.07;;;2.20;;
31746;SDS011;18319;48.974;8.462;2023-02-20T09:20:26;5.13;;;2.40;;
31746;SDS011;18319;48.974;8.462;2023-02-20T09:22:55;3.75;;;2.50;;
31746;SDS011;18319;48.974;8.462;2023-02-20T09:25:23;3.80;;;3.10;;
31746;SDS011;18319;48.974;8.462;2023-02-20T09:27:50;4.50;;;2.67;;
31746;SDS011;18319;48.974;8.462;2023-02-20T09:30:18;3.13;;;1.97;;
31746;SDS011;18319;48.974;8.462;2023-02-20T09:32:47;4.30;;;2.55;;
31746;SDS011;18319;48.974;8.462;2023-02-20T09:35:15;2.63;;;1.90;;
31746;SDS011;18319;48.974;8.462;2023-02-20T09:37:43;3.83;;;2.35;;
31746;SDS011;18319;48.974;8.462;2023-02-20T09:40:11;5.78;;;2.17;;
31746;SDS011;18319;48.974;8.462;2023-02-20T09:42:42;4.97;;;1.83;;
31746;SDS011;18319;48.974;8.462;2023-02-20T09:45:19;4.45;;;2.38;;
31746;SDS011;18319;48.974;8.462;2023-02-20T09:47:54;5.15;;;2.03;;
31746;SDS011;18319;48.974;8.462;2023-02-20T09:50:30;5.30;;;1.80;;
31746;SDS011;18319;48.974;8.462;2023-02-20T09:53:03;5.65;;;2.22;;
31746;SDS011;18319;48.974;8.462;2023-02-20T09:55:34;3.03;;;2.00;;
31746;SDS011;18319;48.974;8.462;2023-02-20T09:58:04;4.15;;;2.00;;
31746;SDS011;18319;48.974;8.462;2023-02-20T10:00:32;3.70;;;1.92;;
31746;SDS011;18319;48.974;8.462;2023-02-20T10:03:09;1.88;;;1.77;;
31746;SDS011;18319;48.974;8.462;2023-02-20T10:05:43;3.47;;;2.10;;
31746;SDS011;18319;48.974;8.462;2023-02-20T10:08:18;6.22;;;2.40;;
31746;SDS011;18319;48.974;8.462;2023-02-20T10:10:47;2.50;;;1.67;;
31746;SDS011;18319;48.974;8.462;2023-02-20T10:16:17;3.55;;;1.75;;
31746;SDS011;18319;48.974;8.462;2023-02-20T10:18:53;2.33;;;1.60;;
31746;SDS011;18319;48.974;8.462;2023-02-20T10:21:31;3.40;;;1.52;;
31746;SDS011;18319;48.974;8.462;2023-02-20T10:24:12;2.72;;;1.90;;
31746;SDS011;18319;48.974;8.462;2023-02-20T10:26:50;4.18;;;1.95;;
31746;SDS011;18319;48.974;8.462;2023-02-20T10:29:24;2.10;;;1.55;;
31746;SDS011;18319;48.974;8.462;2023-02-20T10:31:57;6.32;;;2.17;;
31746;SDS011;18319;48.974;8.462;2023-02-20T10:34:29;1.48;;;1.35;;
31746;SDS011;18319;48.974;8.462;2023-02-20T10:37:01;3.35;;;2.05;;
31746;SDS011;18319;48.974;8.462;2023-02-20T10:39:31;3.60;;;1.60;;
31746;SDS011;18319;48.974;8.462;2023-02-20T10:42:02;2.85;;;1.30;;
31746;SDS011;18319;48.974;8.462;2023-02-20T10:44:35;3.20;;;1.70;;
31746;SDS011;18319;48.974;8.462;2023-02-20T10:47:09;4.18;;;2.17;;
31746;SDS011;18319;48.974;8.462;2023-02-20T10:49:43;3.05;;;1.85;;
31746;SDS011;18319;48.974;8.462;2023-02-20T10:52:15;2.38;;;1.70;;
31746;SDS011;18319;48.974;8.462;2023-02-20T10:54:46;4.18;;;2.00;;
31746;SDS011;18319;48.974;8.462;2023-02-20T10:57:17;3.45;;;1.70;;
31746;SDS011;18319;48.974;8.462;2023-02-20T10:59:48;2.70;;;1.75;;
31746;SDS011;18319;48.974;8.462;2023-02-20T11:02:24;5.38;;;2.13;;
31746;SDS011;18319;48.974;8.462;2023-02-20T11:04:59;9.95;;;3.63;;
31746;SDS011;18319;48.974;8.462;2023-02-20T11:07:30;5.18;;;1.80;;
31746;SDS011;18319;48.974;8.462;2023-02-20T11:09:57;5.90;;;1.77;;
31746;SDS011;18319;48.974;8.462;2023-02-20T11:12:25;2.78;;;1.77;;
31746;SDS011;18319;48.974;8.462;2023-02-20T11:14:55;6.53;;;2.58;;
31746;SDS011;18319;48.974;8.462;2023-02-20T11:17:24;3.88;;;2.03;;
31746;SDS011;18319;48.974;8.462;2023-02-20T11:19:53;5.13;;;2.47;;
31746;SDS011;18319;48.974;8.462;2023-02-20T11:25:12;2.30;;;1.80;;
31746;SDS011;18319;48.974;8.462;2023-02-20T11:27:41;4.85;;;2.20;;
31746;SDS011;18319;48.974;8.462;2023-02-20T11:30:20;3.50;;;1.70;;
31746;SDS011;18319;48.974;8.462;2023-02-20T11:32:57;3.92;;;2.33;;
31746;SDS011;18319;48.974;8.462;2023-02-20T11:35:27;3.92;;;2.38;;
31746;SDS011;18319;48.974;8.462;2023-02-20T11:38:18;5.70;;;2.30;;
31746;SDS011;18319;48.974;8.462;2023-02-20T11:41:03;2.47;;;1.98;;
31746;SDS011;18319;48.974;8.462;2023-02-20T11:43:38;4.53;;;2.53;;
31746;SDS011;18319;48.974;8.462;2023-02-20T11:46:08;2.90;;;1.73;;
31746;SDS011;18319;48.974;8.462;2023-02-20T11:48:40;5.63;;;2.35;;
31746;SDS011;18319;48.974;8.462;2023-02-20T11:51:29;3.28;;;2.45;;
31746;SDS011;18319;48.974;8.462;2023-02-20T11:54:06;4.47;;;2.67;;
31746;SDS011;18319;48.974;8.462;2023-02-20T11:56:34;3.75;;;2.50;;
31746;SDS011;18319;48.974;8.462;2023-02-20T11:59:24;4.85;;;2.50;;
31746;SDS011;18319;48.974;8.462;2023-02-20T12:01:53;4.32;;;2.28;;
31746;SDS011;18319;48.974;8.462;2023-02-20T12:04:21;5.43;;;2.33;;
31746;SDS011;18319;48.974;8.462;2023-02-20T12:06:49;5.03;;;1.85;;
31746;SDS011;18319;48.974;8.462;2023-02-20T12:09:18;3.42;;;2.63;;
31746;SDS011;18319;48.974;8.462;2023-02-20T12:11:49;3.17;;;2.20;;
31746;SDS011;18319;48.974;8.462;2023-02-20T12:14:21;5.13;;;2.30;;
31746;SDS011;18319;48.974;8.462;2023-02-20T12:16:55;4.93;;;2.35;;
31746;SDS011;18319;48.974;8.462;2023-02-20T12:19:32;3.17;;;1.90;;
31746;SDS011;18319;48.974;8.462;2023-02-20T12:22:14;3.30;;;2.33;;
31746;SDS011;18319;48.974;8.462;2023-02-20T12:24:53;4.22;;;2.45;;
31746;SDS011;18319;48.974;8.462;2023-02-20T12:27:41;3.25;;;2.17;;
31746;SDS011;18319;48.974;8.462;2023-02-20T12:30:19;4.18;;;1.77;;
31746;SDS011;18319;48.974;8.462;2023-02-20T12:32:54;4.63;;;2.55;;
31746;SDS011;18319;48.974;8.462;2023-02-20T12:35:31;3.65;;;2.75;;
31746;SDS011;18319;48.974;8.462;2023-02-20T12:38:03;4.90;;;2.30;;
31746;SDS011;18319;48.974;8.462;2023-02-20T12:40:52;2.40;;;1.70;;
31746;SDS011;18319;48.974;8.462;2023-02-20T12:43:37;3.72;;;2.28;;
31746;SDS011;18319;48.974;8.462;2023-02-20T12:46:08;4.13;;;2.13;;
31746;SDS011;18319;48.974;8.462;2023-02-20T12:48:42;6.70;;;2.38;;
31746;SDS011;18319;48.974;8.462;2023-02-20T12:51:22;3.10;;;2.08;;
31746;SDS011;18319;48.974;8.462;2023-02-20T12:54:00;3.83;;;2.60;;
31746;SDS011;18319;48.974;8.462;2023-02-20T12:56:38;2.85;;;2.00;;
31746;SDS011;18319;48.974;8.462;2023-02-20T12:59:15;5.13;;;2.30;;
31746;SDS011;18319;48.974;8.462;2023-02-20T13:01:50;8.05;;;2.38;;
31746;SDS011;18319;48.974;8.462;2023-02-20T13:04:21;3.97;;;2.33;;
31746;SDS011;18319;48.974;8.462;2023-02-20T13:06:53;2.63;;;1.83;;
31746;SDS011;18319;48.974;8.462;2023-02-20T13:09:25;4.88;;;2.60;;
31746;SDS011;18319;48.974;8.462;2023-02-20T13:12:00;3.35;;;1.80;;
31746;SDS011;18319;48.974;8.462;2023-02-20T13:14:33;7.10;;;2.05;;
31746;SDS011;18319;48.974;8.462;2023-02-20T13:17:12;1.90;;;1.80;;
31746;SDS011;18319;48.974;8.462;2023-02-20T13:19:48;2.30;;;1.92;;
31746;SDS011;18319;48.974;8.462;2023-02-20T13:22:20;4.70;;;2.08;;
31746;SDS011;18319;48.974;8.462;2023-02-20T13:24:47;3.08;;;2.28;;
31746;SDS011;18319;48.974;8.462;2023-02-20T13:27:26;3.80;;;2.10;;
31746;SDS011;18319;48.974;8.462;2023-02-20T13:29:57;3.47;;;2.33;;
31746;SDS011;18319;48.974;8.462;2023-02-20T13:32:26;2.75;;;2.15;;
31746;SDS011;18319;48.974;8.462;2023-02-20T13:37:55;4.15;;;2.42;;
31746;SDS011;18319;48.974;8.462;2023-02-20T13:40:37;3.83;;;2.35;;
31746;SDS011;18319;48.974;8.462;2023-02-20T13:43:24;3.65;;;1.90;;
31746;SDS011;18319;48.974;8.462;2023-02-20T13:48:54;4.43;;;2.80;;
31746;SDS011;18319;48.974;8.462;2023-02-20T13:51:27;2.40;;;2.17;;
31746;SDS011;18319;48.974;8.462;2023-02-20T13:54:22;5.20;;;2.72;;
31746;SDS011;18319;48.974;8.462;2023-02-20T13:56:55;4.82;;;2.50;;
31746;SDS011;18319;48.974;8.462;2023-02-20T13:59:28;4.75;;;3.17;;
31746;SDS011;18319;48.974;8.462;2023-02-20T14:02:12;4.53;;;2.78;;
31746;SDS011;18319;48.974;8.462;2023-02-20T14:04:51;3.28;;;2.08;;
31746;SDS011;18319;48.974;8.462;2023-02-20T14:07:25;9.23;;;2.97;;
31746;SDS011;18319;48.974;8.462;2023-02-20T14:09:58;3.83;;;2.30;;
31746;SDS011;18319;48.974;8.462;2023-02-20T14:12:25;4.95;;;2.65;;
31746;SDS011;18319;48.974;8.462;2023-02-20T14:14:54;4.60;;;2.58;;
31746;SDS011;18319;48.974;8.462;2023-02-20T14:17:22;3.30;;;2.15;;
31746;SDS011;18319;48.974;8.462;2023-02-20T14:19:53;3.95;;;2.53;;
31746;SDS011;18319;48.974;8.462;2023-02-20T14:22:24;4.45;;;2.10;;
31746;SDS011;18319;48.974;8.462;2023-02-20T14:25:00;6.22;;;2.65;;
31746;SDS011;18319;48.974;8.462;2023-02-20T14:28:03;3.28;;;1.95;;
31746;SDS011;18319;48.974;8.462;2023-02-20T14:30:40;3.78;;;2.60;;
31746;SDS011;18319;48.974;8.462;2023-02-20T14:33:18;4.07;;;2.28;;
31746;SDS011;18319;48.974;8.462;2023-02-20T14:39:00;3.65;;;2.17;;
31746;SDS011;18319;48.974;8.462;2023-02-20T14:41:36;4.38;;;2.10;;
31746;SDS011;18319;48.974;8.462;2023-02-20T14:44:04;4.47;;;2.45;;
31746;SDS011;18319;48.974;8.462;2023-02-20T14:46:41;3.88;;;1.73;;
31746;SDS011;18319;48.974;8.462;2023-02-20T14:49:09;2.40;;;1.80;;
31746;SDS011;18319;48.974;8.462;2023-02-20T14:51:38;9.40;;;3.13;;
31746;SDS011;18319;48.974;8.462;2023-02-20T14:54:14;3.75;;;2.00;;
31746;SDS011;18319;48.974;8.462;2023-02-20T14:56:44;5.28;;;1.85;;
31746;SDS011;18319;48.974;8.462;2023-02-20T14:59:15;2.45;;;1.80;;
31746;SDS011;18319;48.974;8.462;2023-02-20T15:01:51;3.97;;;1.27;;
31746;SDS011;18319;48.974;8.462;2023-02-20T15:04:20;5.05;;;2.47;;
31746;SDS011;18319;48.974;8.462;2023-02-20T15:06:48;4.05;;;2.03;;
31746;SDS011;18319;48.974;8.462;2023-02-20T15:09:17;5.28;;;1.60;;
31746;SDS011;18319;48.974;8.462;2023-02-20T15:11:45;4.55;;;2.05;;
31746;SDS011;18319;48.974;8.462;2023-02-20T15:14:19;2.65;;;1.60;;
31746;SDS011;18319;48.974;8.462;2023-02-20T15:16:48;2.88;;;2.10;;
31746;SDS011;18319;48.974;8.462;2023-02-20T15:19:33;3.35;;;1.52;;
31746;SDS011;18319;48.974;8.462;2023-02-20T15:22:03;3.65;;;1.90;;
31746;SDS011;18319;48.974;8.462;2023-02-20T15:24:35;2.95;;;1.50;;
31746;SDS011;18319;48.974;8.462;2023-02-20T15:27:10;3.88;;;1.92;;
31746;SDS011;18319;48.974;8.462;2023-02-20T15:29:39;3.50;;;1.83;;
31746;SDS011;18319;48.974;8.462;2023-02-20T15:32:13;5.53;;;2.28;;